Time;durP1;ratioP1;P1;durP2;ratioP2;P2;SDS_P1;SDS_P2;PMS_P1;PMS_P2;Temp;Humidity;BMP_temperature;BMP_pressure;BME280_temperature;BME280_humidity;BME280_pressure;Samples;Min_cycle;Max_cycle;Signal;HPM_P1;HPM_P2
2022/01/22 02:50:55;;;;;;;3.37;2.53;;;;;;;;;;5536978;23;20239;-77
2022/01/22 02:53:21;;;;;;;3.70;2.50;;;;;;;;;;4903531;29;20181;-77
2022/01/22 02:55:47;;;;;;;3.63;3.00;;;;;;;;;;4903692;29;20181;-77
2022/01/22 02:58:14;;;;;;;2.93;2.63;;;;;;;;;;4919149;29;20580;-77
2022/01/22 03:00:41;;;;;;;3.70;2.70;;;;;;;;;;4918831;29;20223;-77
2022/01/22 03:03:07;;;;;;;3.60;2.70;;;;;;;;;;4919737;29;20173;-78
2022/01/22 03:05:34;;;;;;;4.17;2.80;;;;;;;;;;4920488;29;20176;-78
2022/01/22 03:08:05;;;;;;;3.87;2.80;;;;;;;;;;4920997;29;20228;-78
2022/01/22 03:10:31;;;;;;;3.30;2.40;;;;;;;;;;4905493;29;20232;-79
2022/01/22 03:18:01;;;;;;;3.20;2.63;;;;;;;;;;4920500;29;20648;-78
2022/01/22 03:27:19;;;;;;;3.30;2.57;;;;;;;;;;4921983;29;20185;-79
2022/01/22 03:28:55;;;;;;;3.17;2.60;;;;;;;;;;4922866;29;20215;-79
2022/01/22 03:31:22;;;;;;;2.77;2.40;;;;;;;;;;4920073;29;20600;-79
2022/01/22 03:33:48;;;;;;;3.10;2.60;;;;;;;;;;4919665;29;20188;-79
2022/01/22 03:36:14;;;;;;;3.07;2.40;;;;;;;;;;4904398;29;20185;-78
2022/01/22 03:38:40;;;;;;;3.60;2.20;;;;;;;;;;4919410;29;20215;-78
2022/01/22 03:41:07;;;;;;;2.97;2.57;;;;;;;;;;4920018;29;20271;-78
2022/01/22 03:43:32;;;;;;;3.57;2.77;;;;;;;;;;4904196;29;20228;-78
2022/01/22 03:45:58;;;;;;;3.13;2.80;;;;;;;;;;4904517;29;20177;-78
2022/01/22 03:48:24;;;;;;;3.03;2.73;;;;;;;;;;4904332;29;20699;-78
2022/01/22 03:50:50;;;;;;;3.30;2.67;;;;;;;;;;4904357;29;20224;-78
2022/01/22 03:53:17;;;;;;;4.07;2.60;;;;;;;;;;4903948;29;20191;-78
2022/01/22 03:58:10;;;;;;;2.60;2.40;;;;;;;;;;4936969;29;20274;-77
2022/01/22 04:00:36;;;;;;;3.47;2.60;;;;;;;;;;4919798;29;20228;-77
2022/01/22 04:03:26;;;;;;;4.17;2.70;;;;;;;;;;4903943;29;20211;-78
2022/01/22 04:08:29;;;;;;;2.97;2.53;;;;;;;;;;4937057;29;20189;-78
2022/01/22 04:10:55;;;;;;;3.63;2.73;;;;;;;;;;4904139;29;20213;-78
2022/01/22 04:13:28;;;;;;;2.83;2.60;;;;;;;;;;4903910;29;20192;-78
2022/01/22 04:15:54;;;;;;;4.03;2.53;;;;;;;;;;4904711;29;20284;-79
2022/01/22 04:29:19;;;;;;;2.57;2.37;;;;;;;;;;4936751;29;20690;-79
2022/01/22 04:31:45;;;;;;;3.10;2.40;;;;;;;;;;4919067;29;20679;-78
2022/01/22 04:34:11;;;;;;;2.83;2.40;;;;;;;;;;4919344;29;20656;-79
2022/01/22 04:36:37;;;;;;;2.53;2.33;;;;;;;;;;4921815;29;20269;-78
2022/01/22 04:39:03;;;;;;;2.67;2.30;;;;;;;;;;4939777;29;20250;-78
2022/01/22 04:41:29;;;;;;;2.60;2.40;;;;;;;;;;4923199;29;20263;-78
2022/01/22 04:44:00;;;;;;;3.87;2.77;;;;;;;;;;4907860;29;20232;-78
2022/01/22 04:49:18;;;;;;;2.90;2.60;;;;;;;;;;4940068;29;20216;-79
2022/01/22 04:57:13;;;;;;;2.70;2.20;;;;;;;;;;4940101;29;20191;-79
2022/01/22 04:59:39;;;;;;;2.50;2.13;;;;;;;;;;4907350;29;20190;-78
2022/01/22 05:02:05;;;;;;;2.80;2.27;;;;;;;;;;4922759;29;20287;-79
2022/01/22 05:04:31;;;;;;;2.40;2.20;;;;;;;;;;4906932;29;20184;-78
2022/01/22 05:06:57;;;;;;;2.80;2.60;;;;;;;;;;4907328;29;20185;-79
2022/01/22 05:09:23;;;;;;;2.40;2.20;;;;;;;;;;4907122;29;20536;-78
2022/01/22 05:11:49;;;;;;;2.50;2.20;;;;;;;;;;4922634;29;20232;-78
2022/01/22 05:14:15;;;;;;;2.23;2.00;;;;;;;;;;4906871;29;20204;-78
2022/01/22 05:16:42;;;;;;;2.27;2.07;;;;;;;;;;4906657;29;20185;-78
2022/01/22 05:19:16;;;;;;;3.33;2.30;;;;;;;;;;4906907;29;20185;-78
2022/01/22 05:21:44;;;;;;;2.43;2.23;;;;;;;;;;4922108;29;20212;-79
2022/01/22 05:24:15;;;;;;;2.50;2.20;;;;;;;;;;4907078;29;20185;-79
2022/01/22 05:37:05;;;;;;;2.73;2.00;;;;;;;;;;4938916;29;20236;-78
2022/01/22 05:39:32;;;;;;;2.10;1.90;;;;;;;;;;4924851;29;20188;-78
2022/01/22 05:42:00;;;;;;;2.30;1.90;;;;;;;;;;4906815;29;20344;-78
2022/01/22 05:44:26;;;;;;;2.40;1.90;;;;;;;;;;4906497;29;20201;-78
2022/01/22 05:46:56;;;;;;;2.40;2.20;;;;;;;;;;4906178;29;20231;-78
2022/01/22 05:49:24;;;;;;;2.17;1.97;;;;;;;;;;4921565;29;20177;-79
2022/01/22 05:51:52;;;;;;;1.90;1.63;;;;;;;;;;4921621;29;20224;-78
2022/01/22 05:54:47;;;;;;;2.20;1.90;;;;;;;;;;4906113;29;20200;-78
2022/01/22 05:59:57;;;;;;;2.50;2.07;;;;;;;;;;4938869;29;20619;-79
2022/01/22 06:02:23;;;;;;;2.43;2.20;;;;;;;;;;4905824;29;20642;-79
2022/01/22 06:04:49;;;;;;;2.43;2.07;;;;;;;;;;4921654;29;20185;-79
2022/01/22 06:07:15;;;;;;;1.90;1.80;;;;;;;;;;4921670;29;20217;-78
2022/01/22 06:12:42;;;;;;;2.27;2.00;;;;;;;;;;4922829;29;20276;-83
2022/01/22 06:15:09;;;;;;;2.60;1.90;;;;;;;;;;4920151;29;20181;-83
2022/01/22 06:17:35;;;;;;;1.90;1.70;;;;;;;;;;4919859;29;20182;-83
2022/01/22 06:20:02;;;;;;;2.53;2.10;;;;;;;;;;4904445;29;20236;-83
2022/01/22 06:22:28;;;;;;;2.00;1.80;;;;;;;;;;4920024;29;20658;-83
2022/01/22 06:24:54;;;;;;;2.00;1.80;;;;;;;;;;4904183;29;20182;-82
2022/01/22 06:27:20;;;;;;;2.20;2.00;;;;;;;;;;4904098;29;20276;-83
2022/01/22 06:29:46;;;;;;;2.30;1.90;;;;;;;;;;4903861;29;20371;-81
2022/01/22 06:32:12;;;;;;;2.40;1.87;;;;;;;;;;4904231;29;20188;-84
2022/01/22 06:34:38;;;;;;;2.20;1.80;;;;;;;;;;4903930;29;20181;-83
2022/01/22 06:37:04;;;;;;;2.00;1.67;;;;;;;;;;4903900;29;20182;-83
2022/01/22 06:39:41;;;;;;;2.60;2.00;;;;;;;;;;4919456;29;20182;-83
2022/01/22 06:42:07;;;;;;;2.57;2.27;;;;;;;;;;4920576;29;20245;-82
2022/01/22 06:44:34;;;;;;;2.70;2.00;;;;;;;;;;4919481;29;20217;-84
2022/01/22 06:47:01;;;;;;;2.13;1.93;;;;;;;;;;4903751;29;20252;-83
2022/01/22 06:49:27;;;;;;;2.63;1.90;;;;;;;;;;4919551;29;20181;-84
2022/01/22 06:51:54;;;;;;;1.90;1.80;;;;;;;;;;4919101;29;20227;-83
2022/01/22 06:54:21;;;;;;;2.50;2.03;;;;;;;;;;4919054;29;20182;-83
2022/01/22 06:56:48;;;;;;;1.87;1.77;;;;;;;;;;4903567;29;20198;-83
2022/01/22 06:59:14;;;;;;;2.00;1.80;;;;;;;;;;4918069;29;20273;-84
2022/01/22 07:01:40;;;;;;;2.00;1.80;;;;;;;;;;4936418;29;20236;-82
2022/01/22 07:04:07;;;;;;;1.93;1.77;;;;;;;;;;4903446;29;20204;-83
2022/01/22 07:06:33;;;;;;;2.07;1.60;;;;;;;;;;4919050;29;20181;-83
2022/01/22 07:08:59;;;;;;;2.43;2.10;;;;;;;;;;4903269;29;20182;-83
2022/01/22 07:11:25;;;;;;;2.13;1.93;;;;;;;;;;4903063;29;20212;-84
2022/01/22 07:13:52;;;;;;;2.63;2.23;;;;;;;;;;4903144;29;20216;-83
2022/01/22 07:16:18;;;;;;;4.47;3.63;;;;;;;;;;4918933;29;20186;-83
2022/01/22 07:18:44;;;;;;;6.03;3.67;;;;;;;;;;4903284;29;20192;-83
2022/01/22 07:21:16;;;;;;;4.03;3.30;;;;;;;;;;4918596;29;20221;-82
2022/01/22 07:26:15;;;;;;;3.90;3.30;;;;;;;;;;4919989;29;20186;-82
2022/01/22 07:28:41;;;;;;;4.30;3.20;;;;;;;;;;4903079;29;20194;-83
2022/01/22 07:31:08;;;;;;;3.00;2.40;;;;;;;;;;4918565;29;20212;-81
2022/01/22 07:33:34;;;;;;;2.77;2.43;;;;;;;;;;4918434;29;20182;-81
2022/01/22 07:36:00;;;;;;;12.30;9.13;;;;;;;;;;4902883;29;20221;-80
2022/01/22 07:38:26;;;;;;;7.70;6.73;;;;;;;;;;4918542;29;20641;-80
2022/01/22 07:40:52;;;;;;;4.60;4.20;;;;;;;;;;4908816;29;20247;-80
2022/01/22 07:43:19;;;;;;;2.53;2.30;;;;;;;;;;4914034;29;20185;-79
2022/01/22 07:45:45;;;;;;;3.40;2.10;;;;;;;;;;4922081;29;20191;-79
2022/01/22 07:48:11;;;;;;;7.40;6.70;;;;;;;;;;4922315;29;20185;-79
2022/01/22 07:50:37;;;;;;;3.17;2.87;;;;;;;;;;4922265;29;20635;-78
2022/01/22 07:53:03;;;;;;;2.10;1.90;;;;;;;;;;4937940;29;20633;-79
2022/01/22 07:55:30;;;;;;;2.67;2.00;;;;;;;;;;4922289;29;20212;-78
2022/01/22 07:57:56;;;;;;;2.07;1.87;;;;;;;;;;4937337;29;20239;-80
2022/01/22 08:00:22;;;;;;;2.23;2.03;;;;;;;;;;4937239;29;20255;-80
2022/01/22 08:02:48;;;;;;;3.10;2.30;;;;;;;;;;4921728;29;20185;-80
2022/01/22 08:05:14;;;;;;;2.43;2.03;;;;;;;;;;4936999;29;20176;-80
2022/01/22 08:07:44;;;;;;;2.63;2.30;;;;;;;;;;4937089;29;20184;-80
2022/01/22 08:10:11;;;;;;;2.70;2.10;;;;;;;;;;4936634;29;20257;-84
2022/01/22 08:12:38;;;;;;;2.30;2.00;;;;;;;;;;4936928;29;20181;-84
2022/01/22 08:15:05;;;;;;;2.90;2.20;;;;;;;;;;4936916;29;20255;-84
2022/01/22 08:17:31;;;;;;;2.23;2.03;;;;;;;;;;4936832;29;20181;-84
2022/01/22 08:19:57;;;;;;;2.30;2.10;;;;;;;;;;4936703;28;20194;-84
2022/01/22 08:22:23;;;;;;;2.23;1.80;;;;;;;;;;4921438;29;20631;-83
2022/01/22 08:24:52;;;;;;;4.03;2.30;;;;;;;;;;4920947;29;20188;-83
2022/01/22 08:29:53;;;;;;;2.00;1.80;;;;;;;;;;4938372;28;20184;-82
2022/01/22 08:37:33;;;;;;;2.70;2.20;;;;;;;;;;4939762;29;20195;-83
2022/01/22 08:40:00;;;;;;;17.50;15.90;;;;;;;;;;4921034;28;20177;-84
2022/01/22 08:42:27;;;;;;;9.50;8.57;;;;;;;;;;4936810;29;20264;-83
2022/01/22 08:44:53;;;;;;;6.20;5.60;;;;;;;;;;4936406;29;20201;-82
2022/01/22 08:47:21;;;;;;;5.17;4.70;;;;;;;;;;4936649;29;20181;-83
2022/01/22 08:49:47;;;;;;;2.70;2.43;;;;;;;;;;4936524;28;20264;-83
2022/01/22 08:52:15;;;;;;;2.60;2.40;;;;;;;;;;4921054;29;20276;-83
2022/01/22 08:54:42;;;;;;;2.50;2.30;;;;;;;;;;4921014;29;20193;-83
2022/01/22 08:57:09;;;;;;;3.00;2.53;;;;;;;;;;4936546;29;20264;-83
2022/01/22 08:59:35;;;;;;;3.37;2.60;;;;;;;;;;4936457;29;20189;-83
2022/01/22 09:02:01;;;;;;;2.87;2.03;;;;;;;;;;4920835;29;20227;-83
2022/01/22 09:04:27;;;;;;;3.43;2.63;;;;;;;;;;4937083;29;20188;-82
2022/01/22 09:06:53;;;;;;;2.77;1.90;;;;;;;;;;4920947;29;20188;-81
2022/01/22 09:09:19;;;;;;;2.47;2.27;;;;;;;;;;4920902;29;20180;-81
2022/01/22 09:11:46;;;;;;;2.10;1.90;;;;;;;;;;4920845;29;20216;-81
2022/01/22 09:14:13;;;;;;;2.90;2.37;;;;;;;;;;4936142;29;20209;-82
2022/01/22 09:16:39;;;;;;;2.30;2.00;;;;;;;;;;4936767;29;20184;-82
2022/01/22 09:19:08;;;;;;;2.07;1.80;;;;;;;;;;4936713;29;20179;-82
2022/01/22 09:21:35;;;;;;;2.97;1.90;;;;;;;;;;4936493;28;20213;-82
2022/01/22 09:24:01;;;;;;;1.90;1.63;;;;;;;;;;4938943;29;20192;-82
2022/01/22 09:26:28;;;;;;;1.90;1.80;;;;;;;;;;4924345;29;20265;-82
2022/01/22 09:28:56;;;;;;;2.43;2.03;;;;;;;;;;4939652;29;20238;-82
2022/01/22 09:31:22;;;;;;;2.83;2.53;;;;;;;;;;4939810;29;20204;-82
2022/01/22 09:33:49;;;;;;;2.20;2.00;;;;;;;;;;4939712;29;20212;-82
2022/01/22 09:36:15;;;;;;;2.20;2.00;;;;;;;;;;4939679;29;20177;-82
2022/01/22 09:38:41;;;;;;;2.87;2.30;;;;;;;;;;4939660;29;20192;-82
2022/01/22 09:41:07;;;;;;;2.30;1.83;;;;;;;;;;4923456;29;20216;-82
2022/01/22 09:43:33;;;;;;;2.67;1.70;;;;;;;;;;4939594;29;20204;-82
2022/01/22 09:45:59;;;;;;;3.60;2.97;;;;;;;;;;4939733;29;20173;-82
2022/01/22 09:48:26;;;;;;;2.33;1.80;;;;;;;;;;4923846;29;20187;-82
2022/01/22 09:50:52;;;;;;;2.00;1.77;;;;;;;;;;4923549;29;20220;-82
2022/01/22 09:53:19;;;;;;;3.10;2.80;;;;;;;;;;4923616;29;20185;-82
2022/01/22 09:55:46;;;;;;;2.80;2.50;;;;;;;;;;4923949;29;20189;-82
2022/01/22 09:58:12;;;;;;;4.00;2.50;;;;;;;;;;4923594;29;20188;-82
2022/01/22 10:00:38;;;;;;;3.70;3.10;;;;;;;;;;4923483;29;20216;-82
2022/01/22 10:03:13;;;;;;;3.57;2.90;;;;;;;;;;4923651;29;20181;-82
2022/01/22 10:05:40;;;;;;;3.37;2.40;;;;;;;;;;4939227;29;20177;-82
2022/01/22 10:08:25;;;;;;;2.97;1.80;;;;;;;;;;4939395;29;20177;-81
2022/01/22 10:10:52;;;;;;;2.60;2.20;;;;;;;;;;4939305;29;20201;-81
2022/01/22 10:13:40;;;;;;;9.43;6.93;;;;;;;;;;4939224;29;20188;-81
2022/01/22 10:16:13;;;;;;;2.27;1.87;;;;;;;;;;4939140;29;20186;-81
2022/01/22 10:18:39;;;;;;;8.30;4.77;;;;;;;;;;4923357;29;20185;-81
2022/01/22 10:21:14;;;;;;;2.97;2.00;;;;;;;;;;4923726;29;20217;-81
2022/01/22 10:23:41;;;;;;;2.97;2.23;;;;;;;;;;4923429;29;20288;-80
2022/01/22 10:26:10;;;;;;;7.40;5.07;;;;;;;;;;4923566;29;20658;-81
2022/01/22 10:28:49;;;;;;;4.03;2.40;;;;;;;;;;4923849;29;20181;-81
2022/01/22 10:31:22;;;;;;;2.27;1.63;;;;;;;;;;4939301;29;20205;-79
2022/01/22 10:34:04;;;;;;;1.87;1.60;;;;;;;;;;4924272;29;20711;-79
2022/01/22 10:36:31;;;;;;;1.40;1.30;;;;;;;;;;4922990;29;20185;-78
2022/01/22 10:38:56;;;;;;;2.53;1.10;;;;;;;;;;4939031;29;20181;-80
2022/01/22 10:41:52;;;;;;;1.53;1.20;;;;;;;;;;4922982;29;20635;-80
2022/01/22 10:44:23;;;;;;;2.03;1.20;;;;;;;;;;4918720;29;20190;-80
2022/01/22 10:46:50;;;;;;;1.93;1.40;;;;;;;;;;4938633;29;20182;-80
2022/01/22 10:49:19;;;;;;;2.33;1.70;;;;;;;;;;4923119;29;20232;-80
2022/01/22 10:51:48;;;;;;;1.63;1.53;;;;;;;;;;4922831;29;20224;-77
2022/01/22 10:54:15;;;;;;;1.93;1.50;;;;;;;;;;4937966;29;20619;-76
2022/01/22 10:56:41;;;;;;;2.73;1.57;;;;;;;;;;4938492;29;20652;-76
2022/01/22 10:59:09;;;;;;;2.47;2.20;;;;;;;;;;4938358;29;20609;-76
2022/01/22 11:01:44;;;;;;;2.47;2.20;;;;;;;;;;4937887;29;20689;-76
2022/01/22 11:04:11;;;;;;;2.57;2.23;;;;;;;;;;4937628;29;20644;-76
2022/01/22 11:06:39;;;;;;;1.83;1.60;;;;;;;;;;4937815;29;20240;-76
2022/01/22 11:09:07;;;;;;;2.30;1.87;;;;;;;;;;4922322;29;20193;-76
2022/01/22 11:11:37;;;;;;;1.73;1.37;;;;;;;;;;4937809;29;20603;-75
2022/01/22 11:14:08;;;;;;;2.17;1.80;;;;;;;;;;4937733;29;20186;-76
2022/01/22 11:16:34;;;;;;;8.30;6.30;;;;;;;;;;4922162;29;20182;-76
2022/01/22 11:19:02;;;;;;;2.90;1.73;;;;;;;;;;4937566;29;20185;-76
2022/01/22 11:21:28;;;;;;;1.83;1.50;;;;;;;;;;4922114;29;20226;-75
2022/01/22 11:23:54;;;;;;;2.10;1.90;;;;;;;;;;4938149;29;20213;-76
2022/01/22 11:26:20;;;;;;;7.33;4.63;;;;;;;;;;4938652;29;20181;-76
2022/01/22 11:28:51;;;;;;;2.63;2.13;;;;;;;;;;4938442;29;20179;-76
2022/01/22 11:31:17;;;;;;;2.27;1.73;;;;;;;;;;4937805;29;20205;-76
2022/01/22 11:33:45;;;;;;;10.03;5.97;;;;;;;;;;4937433;29;20181;-76
2022/01/22 11:36:20;;;;;;;5.37;3.70;;;;;;;;;;4937644;29;20212;-80
2022/01/22 11:38:52;;;;;;;3.20;2.23;;;;;;;;;;4938102;29;20204;-80
2022/01/22 11:41:21;;;;;;;6.93;4.90;;;;;;;;;;4938176;29;20268;-82
2022/01/22 11:43:56;;;;;;;3.43;2.20;;;;;;;;;;4922948;29;20208;-80
2022/01/22 11:46:31;;;;;;;1.20;1.10;;;;;;;;;;4937129;29;20184;-79
2022/01/22 11:49:11;;;;;;;3.77;2.43;;;;;;;;;;4923520;29;20184;-80
2022/01/22 11:51:37;;;;;;;3.57;2.60;;;;;;;;;;4937779;29;20225;-81
2022/01/22 11:54:04;;;;;;;1.40;1.30;;;;;;;;;;4922506;29;20247;-81
2022/01/22 11:56:30;;;;;;;1.20;1.10;;;;;;;;;;4937868;29;20177;-79
2022/01/22 11:58:56;;;;;;;2.93;1.90;;;;;;;;;;4921888;29;20201;-81
2022/01/22 12:01:41;;;;;;;6.23;3.73;;;;;;;;;;4937556;29;20219;-80
2022/01/22 12:04:09;;;;;;;4.43;2.67;;;;;;;;;;4937275;29;20212;-80
2022/01/22 12:06:35;;;;;;;5.10;2.77;;;;;;;;;;4937568;29;20238;-80
2022/01/22 12:09:15;;;;;;;4.70;2.57;;;;;;;;;;4937573;29;20183;-80
2022/01/22 12:14:46;;;;;;;6.07;3.10;;;;;;;;;;4940194;29;20240;-80
2022/01/22 12:17:18;;;;;;;3.67;1.80;;;;;;;;;;4937770;29;20193;-79
2022/01/22 12:19:53;;;;;;;2.10;1.60;;;;;;;;;;4922306;28;20217;-79
2022/01/22 12:22:34;;;;;;;2.20;1.73;;;;;;;;;;4937451;29;20212;-79
2022/01/22 12:25:23;;;;;;;3.03;2.13;;;;;;;;;;4937409;29;20181;-79
2022/01/22 12:27:54;;;;;;;7.87;4.50;;;;;;;;;;4937312;29;20269;-80
2022/01/22 12:30:32;;;;;;;6.27;3.07;;;;;;;;;;4937785;29;20356;-80
2022/01/22 12:32:59;;;;;;;11.00;5.70;;;;;;;;;;4937516;29;20184;-82
2022/01/22 12:35:39;;;;;;;3.83;2.53;;;;;;;;;;4921275;29;20216;-82
2022/01/22 12:39:01;;;;;;;2.90;2.40;;;;;;;;;;4937186;29;20182;-81
2022/01/22 12:43:52;;;;;;;5.27;2.20;;;;;;;;;;4938020;29;20174;-82
2022/01/22 12:46:18;;;;;;;10.13;6.67;;;;;;;;;;4921415;29;20603;-82
2022/01/22 12:48:44;;;;;;;5.90;4.17;;;;;;;;;;4937073;29;20238;-82
2022/01/22 12:51:10;;;;;;;5.10;3.50;;;;;;;;;;4937071;29;20333;-81
2022/01/22 12:53:38;;;;;;;5.73;4.10;;;;;;;;;;4936819;29;20188;-81
2022/01/22 12:58:38;;;;;;;6.07;4.30;;;;;;;;;;4957890;29;20183;-82
2022/01/22 13:01:12;;;;;;;12.73;7.90;;;;;;;;;;4940780;29;20321;-81
2022/01/22 13:03:40;;;;;;;6.57;4.47;;;;;;;;;;4940515;29;20212;-78
2022/01/22 13:06:06;;;;;;;5.63;3.37;;;;;;;;;;4940852;29;20713;-80
2022/01/22 13:08:33;;;;;;;6.27;3.33;;;;;;;;;;4940752;29;20178;-81
2022/01/22 13:11:01;;;;;;;10.40;6.30;;;;;;;;;;4940434;29;20298;-80
2022/01/22 13:13:27;;;;;;;11.07;6.37;;;;;;;;;;4940785;29;20650;-83
2022/01/22 13:16:20;;;;;;;4.70;3.03;;;;;;;;;;4940571;29;20183;-82
2022/01/22 13:18:50;;;;;;;2.87;2.50;;;;;;;;;;4936486;29;20186;-82
2022/01/22 13:21:17;;;;;;;5.30;3.63;;;;;;;;;;4940349;29;20218;-82
2022/01/22 13:23:43;;;;;;;13.97;6.03;;;;;;;;;;4940139;29;20532;-82
2022/01/22 13:26:10;;;;;;;10.57;5.47;;;;;;;;;;4940535;29;20235;-82
2022/01/22 13:28:38;;;;;;;9.40;5.07;;;;;;;;;;4924655;29;20278;-81
2022/01/22 13:31:12;;;;;;;4.97;3.30;;;;;;;;;;4924930;29;20232;-83
2022/01/22 13:49:53;;;;;;;1.20;1.10;;;;;;;;;;4957633;28;20245;-79
2022/01/22 13:52:20;;;;;;;1.70;1.37;;;;;;;;;;4924933;29;20277;-79
2022/01/22 13:54:47;;;;;;;2.03;1.73;;;;;;;;;;4924766;29;20273;-79
2022/01/22 13:57:18;;;;;;;1.00;0.93;;;;;;;;;;4924744;29;20193;-79
2022/01/22 13:59:45;;;;;;;3.13;2.00;;;;;;;;;;4940660;28;20181;-79
2022/01/22 14:05:07;;;;;;;4.27;3.73;;;;;;;;;;4957767;29;20166;-80
2022/01/22 14:07:37;;;;;;;2.70;1.90;;;;;;;;;;4941043;29;20173;-80
2022/01/22 14:10:05;;;;;;;4.57;2.87;;;;;;;;;;4924822;28;20192;-80
2022/01/22 14:12:39;;;;;;;2.60;1.90;;;;;;;;;;4924942;29;20207;-79
2022/01/22 14:15:06;;;;;;;5.60;3.70;;;;;;;;;;4940291;29;20231;-79
2022/01/22 14:17:38;;;;;;;3.43;2.47;;;;;;;;;;4940450;29;20191;-80
2022/01/22 14:20:11;;;;;;;4.33;3.30;;;;;;;;;;4940369;28;20205;-80
2022/01/22 14:22:57;;;;;;;3.00;2.30;;;;;;;;;;4924976;29;20277;-79
2022/01/22 14:25:24;;;;;;;3.10;2.50;;;;;;;;;;4924569;29;20186;-79
2022/01/22 14:27:58;;;;;;;4.03;2.57;;;;;;;;;;4940416;29;20271;-80
2022/01/22 14:30:34;;;;;;;3.93;2.43;;;;;;;;;;4924402;29;20273;-79
2022/01/22 14:33:00;;;;;;;1.77;1.50;;;;;;;;;;4939816;29;20250;-80
2022/01/22 14:35:58;;;;;;;1.63;1.17;;;;;;;;;;4923632;29;20186;-80
2022/01/22 14:38:34;;;;;;;1.27;1.17;;;;;;;;;;4939673;28;20182;-81
2022/01/22 14:44:23;;;;;;;1.57;1.40;;;;;;;;;;4937419;29;20182;-81
2022/01/22 14:46:55;;;;;;;1.67;1.37;;;;;;;;;;4927114;29;20169;-81
2022/01/22 14:49:40;;;;;;;1.30;1.20;;;;;;;;;;4924399;29;20224;-80
2022/01/22 14:52:07;;;;;;;1.60;1.50;;;;;;;;;;4939450;29;20289;-80
2022/01/22 14:54:35;;;;;;;1.73;1.63;;;;;;;;;;4939608;29;20192;-80
2022/01/22 14:57:01;;;;;;;2.10;1.50;;;;;;;;;;4923595;29;20186;-80
2022/01/22 14:59:27;;;;;;;2.23;1.90;;;;;;;;;;4939768;29;20668;-80
2022/01/22 15:01:54;;;;;;;2.00;1.60;;;;;;;;;;4939198;29;20218;-80
2022/01/22 15:04:20;;;;;;;2.07;1.73;;;;;;;;;;4937082;23;20308;-76
2022/01/22 15:06:46;;;;;;;1.90;1.60;;;;;;;;;;4923010;29;20185;-76
2022/01/22 15:09:13;;;;;;;2.13;1.60;;;;;;;;;;4922897;29;20181;-76
2022/01/22 15:11:39;;;;;;;2.13;1.70;;;;;;;;;;4938653;29;20231;-77
2022/01/22 15:14:06;;;;;;;1.73;1.63;;;;;;;;;;4919114;29;20206;-77
2022/01/22 15:16:39;;;;;;;2.00;1.63;;;;;;;;;;4935335;29;20194;-77
2022/01/22 15:19:12;;;;;;;4.47;2.17;;;;;;;;;;4935541;29;20178;-77
2022/01/22 15:21:39;;;;;;;2.77;2.20;;;;;;;;;;4918286;29;20207;-77
2022/01/22 15:24:05;;;;;;;3.87;2.10;;;;;;;;;;4919193;29;20201;-77
2022/01/22 15:26:31;;;;;;;3.80;2.33;;;;;;;;;;4934991;29;20240;-77
2022/01/22 15:28:57;;;;;;;2.67;2.30;;;;;;;;;;4935204;29;20181;-77
2022/01/22 15:31:32;;;;;;;4.80;2.37;;;;;;;;;;4918917;29;20182;-78
2022/01/22 15:34:12;;;;;;;3.00;2.10;;;;;;;;;;4934648;29;20209;-77
2022/01/22 15:36:49;;;;;;;2.30;2.00;;;;;;;;;;4918868;29;20617;-77
2022/01/22 15:39:15;;;;;;;2.30;2.03;;;;;;;;;;4919163;29;20220;-77
2022/01/22 15:41:41;;;;;;;2.57;2.13;;;;;;;;;;4934584;29;20308;-76
2022/01/22 15:44:09;;;;;;;2.37;1.87;;;;;;;;;;4934749;29;20289;-77
2022/01/22 15:46:37;;;;;;;2.37;2.10;;;;;;;;;;4918679;29;20245;-77
2022/01/22 15:49:04;;;;;;;2.57;2.30;;;;;;;;;;4918918;29;20174;-77
2022/01/22 15:51:30;;;;;;;2.83;2.20;;;;;;;;;;4918717;29;20185;-75
2022/01/22 15:53:56;;;;;;;5.50;3.37;;;;;;;;;;4934271;29;20773;-76
2022/01/22 15:56:22;;;;;;;3.97;3.40;;;;;;;;;;4934509;29;20189;-76
2022/01/22 15:58:48;;;;;;;5.00;3.27;;;;;;;;;;4918582;29;20182;-76
2022/01/22 16:01:15;;;;;;;4.17;2.90;;;;;;;;;;4934311;29;20209;-77
2022/01/22 16:03:44;;;;;;;3.37;2.57;;;;;;;;;;4933927;29;20210;-76
2022/01/22 16:06:18;;;;;;;2.80;2.50;;;;;;;;;;4918662;29;20261;-75
2022/01/22 16:08:46;;;;;;;2.60;2.30;;;;;;;;;;4934376;29;20161;-75
2022/01/22 16:14:16;;;;;;;4.80;4.07;;;;;;;;;;4935310;29;20573;-75
2022/01/22 16:16:44;;;;;;;4.20;3.13;;;;;;;;;;4918777;29;20179;-76
2022/01/22 16:19:45;;;;;;;4.17;3.60;;;;;;;;;;4934084;29;20196;-76
2022/01/22 16:22:11;;;;;;;4.30;3.10;;;;;;;;;;4918562;29;20252;-77
2022/01/22 16:24:37;;;;;;;6.67;4.37;;;;;;;;;;4935220;29;20193;-76
2022/01/22 16:27:04;;;;;;;3.40;2.97;;;;;;;;;;4934501;29;20187;-76
2022/01/22 16:29:31;;;;;;;3.83;3.43;;;;;;;;;;4934367;29;20175;-77
2022/01/22 16:31:57;;;;;;;6.33;3.53;;;;;;;;;;4919807;29;20610;-77
2022/01/22 16:34:23;;;;;;;4.83;3.50;;;;;;;;;;4922297;29;20664;-77
2022/01/22 16:36:49;;;;;;;3.90;3.20;;;;;;;;;;4922324;29;20193;-77
2022/01/22 16:39:15;;;;;;;3.83;3.33;;;;;;;;;;4939204;29;20183;-76
2022/01/22 16:41:41;;;;;;;3.67;3.20;;;;;;;;;;4937908;29;20272;-76
2022/01/22 16:44:34;;;;;;;3.90;3.37;;;;;;;;;;4938893;29;20195;-77
2022/01/22 16:55:02;;;;;;;4.93;3.80;;;;;;;;;;4939673;29;20198;-77
2022/01/22 16:57:32;;;;;;;4.97;4.03;;;;;;;;;;4938670;29;20305;-76
2022/01/22 17:00:03;;;;;;;4.13;3.73;;;;;;;;;;4923349;29;20175;-76
2022/01/22 17:02:33;;;;;;;4.47;3.70;;;;;;;;;;4939030;29;20189;-76
2022/01/22 17:05:07;;;;;;;4.63;3.40;;;;;;;;;;4922450;29;20222;-76
2022/01/22 17:07:47;;;;;;;3.83;3.43;;;;;;;;;;4938338;29;20714;-76
2022/01/22 17:10:46;;;;;;;3.53;3.20;;;;;;;;;;4939926;29;20154;-76
2022/01/22 17:15:43;;;;;;;4.87;4.03;;;;;;;;;;4939085;29;20178;-75
2022/01/22 17:18:09;;;;;;;4.70;3.80;;;;;;;;;;4938769;29;20183;-76
2022/01/22 17:20:45;;;;;;;3.60;3.20;;;;;;;;;;4937951;29;20218;-76
2022/01/22 17:23:11;;;;;;;4.40;3.00;;;;;;;;;;4922956;29;20261;-76
2022/01/22 17:25:37;;;;;;;5.37;3.40;;;;;;;;;;4922807;29;20189;-76
2022/01/22 17:28:08;;;;;;;6.00;3.83;;;;;;;;;;4939907;29;20178;-76
2022/01/22 17:30:35;;;;;;;5.27;4.53;;;;;;;;;;4939770;29;20161;-76
2022/01/22 17:33:01;;;;;;;4.47;3.60;;;;;;;;;;4939994;29;20178;-76
2022/01/22 17:35:27;;;;;;;4.73;2.80;;;;;;;;;;4922637;29;20214;-76
2022/01/22 17:37:53;;;;;;;3.90;2.97;;;;;;;;;;4938767;29;20192;-76
2022/01/22 17:40:20;;;;;;;4.53;3.53;;;;;;;;;;4938761;29;20195;-76
2022/01/22 17:42:46;;;;;;;4.47;3.40;;;;;;;;;;4937966;29;20672;-76
2022/01/22 17:45:13;;;;;;;4.67;3.50;;;;;;;;;;4921755;29;20294;-76
2022/01/22 17:47:40;;;;;;;4.83;3.17;;;;;;;;;;4939519;29;20171;-76
2022/01/22 17:50:07;;;;;;;3.50;3.00;;;;;;;;;;4907029;29;20186;-76
2022/01/22 17:52:34;;;;;;;3.60;2.90;;;;;;;;;;4920029;29;20190;-76
2022/01/22 17:55:00;;;;;;;3.27;2.60;;;;;;;;;;4937377;28;20221;-76
2022/01/22 17:57:26;;;;;;;3.57;2.93;;;;;;;;;;4937227;28;20593;-76
2022/01/22 17:59:52;;;;;;;3.37;2.77;;;;;;;;;;4922061;29;20184;-76
2022/01/22 18:02:19;;;;;;;4.63;3.00;;;;;;;;;;4921860;29;20205;-76
2022/01/22 18:04:46;;;;;;;5.37;3.00;;;;;;;;;;4921305;29;20210;-76
2022/01/22 18:07:12;;;;;;;4.60;2.90;;;;;;;;;;4937572;28;20188;-76
2022/01/22 18:09:38;;;;;;;3.47;2.87;;;;;;;;;;4937788;28;20237;-76
2022/01/22 18:12:05;;;;;;;5.13;3.97;;;;;;;;;;4936835;29;20177;-76
2022/01/22 18:14:31;;;;;;;6.37;4.50;;;;;;;;;;4920968;29;20236;-76
2022/01/22 18:16:57;;;;;;;5.13;4.23;;;;;;;;;;4937272;29;20209;-76
2022/01/22 18:19:48;;;;;;;4.03;3.20;;;;;;;;;;4938431;29;20725;-76
2022/01/22 18:22:14;;;;;;;4.30;3.57;;;;;;;;;;4936882;29;20210;-76
2022/01/22 18:24:40;;;;;;;4.97;4.03;;;;;;;;;;4919217;29;20199;-76
2022/01/22 18:27:06;;;;;;;4.77;3.90;;;;;;;;;;4902412;29;20277;-76
2022/01/22 18:29:32;;;;;;;6.20;4.53;;;;;;;;;;4918757;29;20178;-75
2022/01/22 18:31:58;;;;;;;4.13;3.70;;;;;;;;;;4902716;29;20180;-76
2022/01/22 18:34:30;;;;;;;4.40;3.73;;;;;;;;;;4917235;29;20202;-75
2022/01/22 18:36:57;;;;;;;5.70;5.10;;;;;;;;;;4903479;29;20183;-76
2022/01/22 18:39:23;;;;;;;5.93;4.23;;;;;;;;;;4902747;29;20185;-76
2022/01/22 18:41:52;;;;;;;9.00;6.40;;;;;;;;;;4917835;29;20203;-76
2022/01/22 18:44:18;;;;;;;7.97;7.17;;;;;;;;;;4902620;29;20218;-76
2022/01/22 18:46:44;;;;;;;10.00;8.77;;;;;;;;;;4917859;29;20182;-75
2022/01/22 18:49:11;;;;;;;7.13;5.90;;;;;;;;;;4918397;29;20186;-75
2022/01/22 18:51:37;;;;;;;5.17;3.90;;;;;;;;;;4917738;29;20183;-76
2022/01/22 18:54:03;;;;;;;5.43;3.90;;;;;;;;;;4917357;29;20234;-75
2022/01/22 18:56:30;;;;;;;5.60;3.90;;;;;;;;;;4918577;29;20182;-76
2022/01/22 18:58:56;;;;;;;4.07;3.20;;;;;;;;;;4918360;29;20182;-76
2022/01/22 19:01:22;;;;;;;3.50;2.90;;;;;;;;;;4918184;29;20557;-75
2022/01/22 19:03:49;;;;;;;5.60;5.07;;;;;;;;;;4917497;29;20752;-77
2022/01/22 19:06:15;;;;;;;4.20;3.33;;;;;;;;;;4919026;29;20175;-76
2022/01/22 19:08:41;;;;;;;4.30;3.23;;;;;;;;;;4917063;29;20186;-76
2022/01/22 19:11:07;;;;;;;3.90;2.90;;;;;;;;;;4916525;29;20190;-76
2022/01/22 19:13:34;;;;;;;6.17;3.40;;;;;;;;;;4916590;29;20206;-77
2022/01/22 19:16:00;;;;;;;4.03;2.90;;;;;;;;;;4916345;29;20190;-77
2022/01/22 19:18:26;;;;;;;3.50;2.87;;;;;;;;;;4917297;29;20185;-77
2022/01/22 19:21:16;;;;;;;4.10;3.00;;;;;;;;;;4900573;29;20210;-76
2022/01/22 19:28:37;;;;;;;2.97;2.40;;;;;;;;;;4917477;29;20175;-77
2022/01/22 19:31:03;;;;;;;3.80;2.60;;;;;;;;;;4900318;29;20228;-76
2022/01/22 19:33:29;;;;;;;3.40;2.60;;;;;;;;;;4899986;29;20222;-76